sensor_id;sensor_type;location;lat;lon;timestamp;temperature;humidity
2062;DHT22;11070;51.336;12.340;2023-04-24T00:01:27;13.40;84.70
2062;DHT22;11070;51.336;12.340;2023-04-24T00:03:55;13.40;99.90
2062;DHT22;11070;51.336;12.340;2023-04-24T00:06:25;13.40;1.00
2062;DHT22;11070;51.336;12.340;2023-04-24T00:09:01;13.30;99.90
2062;DHT22;11070;51.336;12.340;2023-04-24T00:11:27;13.30;1.00
2062;DHT22;11070;51.336;12.340;2023-04-24T00:13:52;13.20;1.00
2062;DHT22;11070;51.336;12.340;2023-04-24T00:16:18;13.20;99.90
2062;DHT22;11070;51.336;12.340;2023-04-24T00:18:44;13.20;1.00
2062;DHT22;11070;51.336;12.340;2023-04-24T00:21:16;13.20;1.00
2062;DHT22;11070;51.336;12.340;2023-04-24T00:23:43;13.10;9.60
2062;DHT22;11070;51.336;12.340;2023-04-24T00:26:09;13.10;99.90
2062;DHT22;11070;51.336;12.340;2023-04-24T00:28:35;13.00;1.00
2062;DHT22;11070;51.336;12.340;2023-04-24T00:31:01;13.00;1.00
2062;DHT22;11070;51.336;12.340;2023-04-24T00:33:26;13.00;99.90
2062;DHT22;11070;51.336;12.340;2023-04-24T00:35:52;12.90;99.90
2062;DHT22;11070;51.336;12.340;2023-04-24T00:38:18;12.90;1.00
2062;DHT22;11070;51.336;12.340;2023-04-24T00:40:44;12.80;1.00
2062;DHT22;11070;51.336;12.340;2023-04-24T00:43:10;12.80;1.00
2062;DHT22;11070;51.336;12.340;2023-04-24T00:45:35;12.70;1.00
2062;DHT22;11070;51.336;12.340;2023-04-24T00:48:01;12.70;1.00
2062;DHT22;11070;51.336;12.340;2023-04-24T00:50:28;12.70;99.90
2062;DHT22;11070;51.336;12.340;2023-04-24T00:52:54;12.60;99.90
2062;DHT22;11070;51.336;12.340;2023-04-24T00:55:20;12.60;99.90
2062;DHT22;11070;51.336;12.340;2023-04-24T00:57:46;12.50;99.90
2062;DHT22;11070;51.336;12.340;2023-04-24T01:00:14;12.50;99.90
2062;DHT22;11070;51.336;12.340;2023-04-24T01:02:41;12.50;1.00
2062;DHT22;11070;51.336;12.340;2023-04-24T01:05:12;12.50;1.00
2062;DHT22;11070;51.336;12.340;2023-04-24T01:07:39;12.40;1.00
2062;DHT22;11070;51.336;12.340;2023-04-24T01:10:07;12.40;1.00
2062;DHT22;11070;51.336;12.340;2023-04-24T01:12:33;12.30;1.00
2062;DHT22;11070;51.336;12.340;2023-04-24T01:14:59;12.30;1.00
2062;DHT22;11070;51.336;12.340;2023-04-24T01:17:25;12.30;1.00
2062;DHT22;11070;51.336;12.340;2023-04-24T01:19:51;12.20;99.90
2062;DHT22;11070;51.336;12.340;2023-04-24T01:22:22;12.20;99.90
2062;DHT22;11070;51.336;12.340;2023-04-24T01:24:48;12.20;93.30
2062;DHT22;11070;51.336;12.340;2023-04-24T01:27:14;12.20;1.00
2062;DHT22;11070;51.336;12.340;2023-04-24T01:29:40;12.20;99.90
2062;DHT22;11070;51.336;12.340;2023-04-24T01:32:06;12.20;99.90
2062;DHT22;11070;51.336;12.340;2023-04-24T01:34:32;12.20;99.90
2062;DHT22;11070;51.336;12.340;2023-04-24T01:36:59;12.20;1.00
2062;DHT22;11070;51.336;12.340;2023-04-24T01:39:25;12.20;1.00
2062;DHT22;11070;51.336;12.340;2023-04-24T01:41:52;12.20;1.00
2062;DHT22;11070;51.336;12.340;2023-04-24T01:44:18;12.30;1.00
2062;DHT22;11070;51.336;12.340;2023-04-24T01:46:44;12.20;1.00
2062;DHT22;11070;51.336;12.340;2023-04-24T01:49:10;12.20;1.00
2062;DHT22;11070;51.336;12.340;2023-04-24T01:51:36;12.20;1.00
2062;DHT22;11070;51.336;12.340;2023-04-24T01:54:02;12.10;1.00
2062;DHT22;11070;51.336;12.340;2023-04-24T01:56:29;12.20;1.00
2062;DHT22;11070;51.336;12.340;2023-04-24T01:58:56;12.10;1.00
2062;DHT22;11070;51.336;12.340;2023-04-24T02:01:24;12.10;33.70
2062;DHT22;11070;51.336;12.340;2023-04-24T02:03:50;12.00;99.90
2062;DHT22;11070;51.336;12.340;2023-04-24T02:06:16;12.00;99.90
2062;DHT22;11070;51.336;12.340;2023-04-24T02:08:41;12.00;99.90
2062;DHT22;11070;51.336;12.340;2023-04-24T02:11:09;11.90;99.90
2062;DHT22;11070;51.336;12.340;2023-04-24T02:13:35;11.90;99.90
2062;DHT22;11070;51.336;12.340;2023-04-24T02:16:01;11.90;99.90
2062;DHT22;11070;51.336;12.340;2023-04-24T02:18:27;11.90;99.90
2062;DHT22;11070;51.336;12.340;2023-04-24T02:20:52;11.90;91.00
2062;DHT22;11070;51.336;12.340;2023-04-24T02:23:19;11.90;52.50
2062;DHT22;11070;51.336;12.340;2023-04-24T02:25:44;11.90;64.40
2062;DHT22;11070;51.336;12.340;2023-04-24T02:28:11;11.90;99.90
2062;DHT22;11070;51.336;12.340;2023-04-24T02:30:36;11.90;99.90
2062;DHT22;11070;51.336;12.340;2023-04-24T02:33:02;11.80;99.90
2062;DHT22;11070;51.336;12.340;2023-04-24T02:35:28;11.80;99.90
2062;DHT22;11070;51.336;12.340;2023-04-24T02:37:55;11.80;99.90
2062;DHT22;11070;51.336;12.340;2023-04-24T02:40:20;11.80;99.90
2062;DHT22;11070;51.336;12.340;2023-04-24T02:42:46;11.80;99.60
2062;DHT22;11070;51.336;12.340;2023-04-24T02:45:12;11.80;99.90
2062;DHT22;11070;51.336;12.340;2023-04-24T02:47:38;11.70;99.90
2062;DHT22;11070;51.336;12.340;2023-04-24T02:50:03;11.70;99.90
2062;DHT22;11070;51.336;12.340;2023-04-24T02:52:30;11.70;99.90
2062;DHT22;11070;51.336;12.340;2023-04-24T02:54:55;11.60;99.90
2062;DHT22;11070;51.336;12.340;2023-04-24T02:59:47;11.60;99.90
2062;DHT22;11070;51.336;12.340;2023-04-24T03:02:13;11.50;99.90
2062;DHT22;11070;51.336;12.340;2023-04-24T03:04:38;11.50;99.90
2062;DHT22;11070;51.336;12.340;2023-04-24T03:07:05;11.50;38.10
2062;DHT22;11070;51.336;12.340;2023-04-24T03:09:31;11.50;99.90
2062;DHT22;11070;51.336;12.340;2023-04-24T03:11:56;11.40;99.90
2062;DHT22;11070;51.336;12.340;2023-04-24T03:14:23;11.40;44.20
2062;DHT22;11070;51.336;12.340;2023-04-24T03:16:49;11.40;26.30
2062;DHT22;11070;51.336;12.340;2023-04-24T03:19:15;11.40;1.00
2062;DHT22;11070;51.336;12.340;2023-04-24T03:21:41;11.40;1.00
2062;DHT22;11070;51.336;12.340;2023-04-24T03:24:08;11.30;1.00
2062;DHT22;11070;51.336;12.340;2023-04-24T03:26:34;11.30;35.00
2062;DHT22;11070;51.336;12.340;2023-04-24T03:29:00;11.20;99.90
2062;DHT22;11070;51.336;12.340;2023-04-24T03:31:26;11.20;99.90
2062;DHT22;11070;51.336;12.340;2023-04-24T03:33:52;11.20;19.70
2062;DHT22;11070;51.336;12.340;2023-04-24T03:36:17;11.20;1.00
2062;DHT22;11070;51.336;12.340;2023-04-24T03:38:44;11.20;1.00
2062;DHT22;11070;51.336;12.340;2023-04-24T03:41:10;11.20;1.00
2062;DHT22;11070;51.336;12.340;2023-04-24T03:43:37;11.20;1.00
2062;DHT22;11070;51.336;12.340;2023-04-24T03:46:03;11.30;99.90
2062;DHT22;11070;51.336;12.340;2023-04-24T03:48:29;11.30;99.90
2062;DHT22;11070;51.336;12.340;2023-04-24T03:50:55;11.30;99.90
2062;DHT22;11070;51.336;12.340;2023-04-24T03:53:20;11.30;99.90
2062;DHT22;11070;51.336;12.340;2023-04-24T03:55:46;11.30;68.60
2062;DHT22;11070;51.336;12.340;2023-04-24T03:58:12;11.30;99.90
2062;DHT22;11070;51.336;12.340;2023-04-24T04:00:40;11.30;99.90
2062;DHT22;11070;51.336;12.340;2023-04-24T04:03:06;11.30;99.90
2062;DHT22;11070;51.336;12.340;2023-04-24T04:05:31;11.30;99.90
2062;DHT22;11070;51.336;12.340;2023-04-24T04:07:57;11.20;99.90
2062;DHT22;11070;51.336;12.340;2023-04-24T04:10:23;11.30;99.90
2062;DHT22;11070;51.336;12.340;2023-04-24T04:12:49;11.30;99.90
2062;DHT22;11070;51.336;12.340;2023-04-24T04:15:14;11.30;99.90
2062;DHT22;11070;51.336;12.340;2023-04-24T04:17:40;11.40;99.90
2062;DHT22;11070;51.336;12.340;2023-04-24T04:20:06;11.30;99.90
2062;DHT22;11070;51.336;12.340;2023-04-24T04:22:34;11.40;1.00
2062;DHT22;11070;51.336;12.340;2023-04-24T04:25:00;11.40;1.00
2062;DHT22;11070;51.336;12.340;2023-04-24T04:27:26;11.40;1.00
2062;DHT22;11070;51.336;12.340;2023-04-24T04:29:52;11.50;1.00
2062;DHT22;11070;51.336;12.340;2023-04-24T04:32:17;11.50;1.00
2062;DHT22;11070;51.336;12.340;2023-04-24T04:34:43;11.60;1.00
2062;DHT22;11070;51.336;12.340;2023-04-24T04:37:11;11.60;1.00
2062;DHT22;11070;51.336;12.340;2023-04-24T04:39:38;11.60;1.00
2062;DHT22;11070;51.336;12.340;2023-04-24T04:42:03;11.60;1.00
2062;DHT22;11070;51.336;12.340;2023-04-24T04:44:29;11.50;1.00
2062;DHT22;11070;51.336;12.340;2023-04-24T04:46:56;11.50;1.00
2062;DHT22;11070;51.336;12.340;2023-04-24T04:49:22;11.50;1.00
2062;DHT22;11070;51.336;12.340;2023-04-24T04:51:49;11.60;1.00
2062;DHT22;11070;51.336;12.340;2023-04-24T04:54:17;11.50;1.00
2062;DHT22;11070;51.336;12.340;2023-04-24T04:56:43;11.60;1.00
2062;DHT22;11070;51.336;12.340;2023-04-24T04:59:08;11.60;1.00
2062;DHT22;11070;51.336;12.340;2023-04-24T05:01:34;11.60;1.00
2062;DHT22;11070;51.336;12.340;2023-04-24T05:04:00;11.60;1.00
2062;DHT22;11070;51.336;12.340;2023-04-24T05:06:26;11.70;1.00
2062;DHT22;11070;51.336;12.340;2023-04-24T05:08:51;11.70;1.00
2062;DHT22;11070;51.336;12.340;2023-04-24T05:11:21;11.70;1.00
2062;DHT22;11070;51.336;12.340;2023-04-24T05:13:47;11.70;1.00
2062;DHT22;11070;51.336;12.340;2023-04-24T05:16:12;11.70;1.00
2062;DHT22;11070;51.336;12.340;2023-04-24T05:18:38;11.80;1.00
2062;DHT22;11070;51.336;12.340;2023-04-24T05:21:04;11.80;1.00
2062;DHT22;11070;51.336;12.340;2023-04-24T05:23:29;11.90;99.90
2062;DHT22;11070;51.336;12.340;2023-04-24T05:25:55;11.90;99.90
2062;DHT22;11070;51.336;12.340;2023-04-24T05:28:21;12.00;99.90
2062;DHT22;11070;51.336;12.340;2023-04-24T05:30:47;12.00;50.50
2062;DHT22;11070;51.336;12.340;2023-04-24T05:33:13;12.00;82.10
2062;DHT22;11070;51.336;12.340;2023-04-24T05:35:40;12.00;1.00
2062;DHT22;11070;51.336;12.340;2023-04-24T05:38:11;12.10;1.00
2062;DHT22;11070;51.336;12.340;2023-04-24T05:40:37;12.10;1.00
2062;DHT22;11070;51.336;12.340;2023-04-24T05:43:03;12.20;1.00
2062;DHT22;11070;51.336;12.340;2023-04-24T05:45:28;12.20;1.00
2062;DHT22;11070;51.336;12.340;2023-04-24T05:47:54;12.30;1.00
2062;DHT22;11070;51.336;12.340;2023-04-24T05:50:20;12.30;99.90
2062;DHT22;11070;51.336;12.340;2023-04-24T05:52:46;12.40;99.90
2062;DHT22;11070;51.336;12.340;2023-04-24T05:55:11;12.40;99.90
2062;DHT22;11070;51.336;12.340;2023-04-24T05:57:38;12.40;32.60
2062;DHT22;11070;51.336;12.340;2023-04-24T06:00:05;12.50;43.70
2062;DHT22;11070;51.336;12.340;2023-04-24T06:02:31;12.50;21.10
2062;DHT22;11070;51.336;12.340;2023-04-24T06:04:58;12.60;1.00
2062;DHT22;11070;51.336;12.340;2023-04-24T06:07:25;12.70;1.00
2062;DHT22;11070;51.336;12.340;2023-04-24T06:09:52;12.70;99.90
2062;DHT22;11070;51.336;12.340;2023-04-24T06:12:17;12.80;99.90
2062;DHT22;11070;51.336;12.340;2023-04-24T06:14:43;12.80;99.90
2062;DHT22;11070;51.336;12.340;2023-04-24T06:17:09;12.90;99.90
2062;DHT22;11070;51.336;12.340;2023-04-24T06:19:35;12.80;99.90
2062;DHT22;11070;51.336;12.340;2023-04-24T06:22:00;12.80;99.90
2062;DHT22;11070;51.336;12.340;2023-04-24T06:24:29;12.70;99.90
2062;DHT22;11070;51.336;12.340;2023-04-24T06:26:55;12.70;99.90
2062;DHT22;11070;51.336;12.340;2023-04-24T06:29:22;12.80;99.90
2062;DHT22;11070;51.336;12.340;2023-04-24T06:31:47;12.80;99.90
2062;DHT22;11070;51.336;12.340;2023-04-24T06:34:13;12.70;99.90
2062;DHT22;11070;51.336;12.340;2023-04-24T06:36:39;12.70;99.90
2062;DHT22;11070;51.336;12.340;2023-04-24T06:39:05;12.60;1.00
2062;DHT22;11070;51.336;12.340;2023-04-24T06:41:30;12.60;1.00
2062;DHT22;11070;51.336;12.340;2023-04-24T06:43:56;12.50;1.00
2062;DHT22;11070;51.336;12.340;2023-04-24T06:46:22;12.50;1.00
2062;DHT22;11070;51.336;12.340;2023-04-24T06:48:54;12.60;1.00
2062;DHT22;11070;51.336;12.340;2023-04-24T06:51:26;12.60;1.00
2062;DHT22;11070;51.336;12.340;2023-04-24T06:53:53;12.60;99.90
2062;DHT22;11070;51.336;12.340;2023-04-24T06:56:19;12.60;99.90
2062;DHT22;11070;51.336;12.340;2023-04-24T06:58:46;12.60;99.90
2062;DHT22;11070;51.336;12.340;2023-04-24T07:01:11;12.70;99.90
2062;DHT22;11070;51.336;12.340;2023-04-24T07:03:37;12.90;99.90
2062;DHT22;11070;51.336;12.340;2023-04-24T07:06:04;12.80;99.90
2062;DHT22;11070;51.336;12.340;2023-04-24T07:08:30;12.90;99.90
2062;DHT22;11070;51.336;12.340;2023-04-24T07:10:56;12.80;94.40
2062;DHT22;11070;51.336;12.340;2023-04-24T07:13:23;12.80;75.60
2062;DHT22;11070;51.336;12.340;2023-04-24T07:15:48;12.80;55.10
2062;DHT22;11070;51.336;12.340;2023-04-24T07:18:16;12.90;10.80
2062;DHT22;11070;51.336;12.340;2023-04-24T07:20:42;13.00;1.00
2062;DHT22;11070;51.336;12.340;2023-04-24T07:23:08;13.10;1.00
2062;DHT22;11070;51.336;12.340;2023-04-24T07:25:33;13.10;1.00
2062;DHT22;11070;51.336;12.340;2023-04-24T07:27:59;13.30;1.00
2062;DHT22;11070;51.336;12.340;2023-04-24T07:30:25;13.40;1.00
2062;DHT22;11070;51.336;12.340;2023-04-24T07:32:51;13.40;1.00
2062;DHT22;11070;51.336;12.340;2023-04-24T07:35:17;13.60;99.90
2062;DHT22;11070;51.336;12.340;2023-04-24T07:37:42;13.60;99.90
2062;DHT22;11070;51.336;12.340;2023-04-24T07:40:12;13.80;99.90
2062;DHT22;11070;51.336;12.340;2023-04-24T07:42:38;13.70;99.90
2062;DHT22;11070;51.336;12.340;2023-04-24T07:45:04;13.70;99.90
2062;DHT22;11070;51.336;12.340;2023-04-24T07:47:31;13.70;99.90
2062;DHT22;11070;51.336;12.340;2023-04-24T07:49:56;13.80;99.90
2062;DHT22;11070;51.336;12.340;2023-04-24T07:52:23;13.80;99.90
2062;DHT22;11070;51.336;12.340;2023-04-24T07:54:48;14.00;99.90
2062;DHT22;11070;51.336;12.340;2023-04-24T07:57:15;14.20;1.00
2062;DHT22;11070;51.336;12.340;2023-04-24T07:59:41;14.50;1.00
2062;DHT22;11070;51.336;12.340;2023-04-24T08:02:07;14.50;1.00
2062;DHT22;11070;51.336;12.340;2023-04-24T08:04:33;14.60;1.00
2062;DHT22;11070;51.336;12.340;2023-04-24T08:06:58;14.90;1.00
2062;DHT22;11070;51.336;12.340;2023-04-24T08:09:24;15.10;1.00
2062;DHT22;11070;51.336;12.340;2023-04-24T08:11:50;15.40;1.00
2062;DHT22;11070;51.336;12.340;2023-04-24T08:14:16;15.20;1.00
2062;DHT22;11070;51.336;12.340;2023-04-24T08:16:41;15.10;1.00
2062;DHT22;11070;51.336;12.340;2023-04-24T08:19:07;15.30;1.00
2062;DHT22;11070;51.336;12.340;2023-04-24T08:21:33;15.60;1.00
2062;DHT22;11070;51.336;12.340;2023-04-24T08:23:58;16.00;99.90
2062;DHT22;11070;51.336;12.340;2023-04-24T08:26:24;16.10;99.90
2062;DHT22;11070;51.336;12.340;2023-04-24T08:28:50;15.70;99.90
2062;DHT22;11070;51.336;12.340;2023-04-24T08:31:16;15.40;99.90
2062;DHT22;11070;51.336;12.340;2023-04-24T08:33:41;15.20;99.90
2062;DHT22;11070;51.336;12.340;2023-04-24T08:36:10;15.20;1.00
2062;DHT22;11070;51.336;12.340;2023-04-24T08:38:36;15.30;99.90
2062;DHT22;11070;51.336;12.340;2023-04-24T08:41:01;15.20;99.90
2062;DHT22;11070;51.336;12.340;2023-04-24T08:43:27;15.00;99.90
2062;DHT22;11070;51.336;12.340;2023-04-24T08:45:56;15.10;99.90
2062;DHT22;11070;51.336;12.340;2023-04-24T08:48:22;14.90;99.90
2062;DHT22;11070;51.336;12.340;2023-04-24T08:50:50;14.90;99.90
2062;DHT22;11070;51.336;12.340;2023-04-24T08:53:16;15.00;99.90
2062;DHT22;11070;51.336;12.340;2023-04-24T08:55:42;15.60;99.90
2062;DHT22;11070;51.336;12.340;2023-04-24T08:58:09;15.70;99.90
2062;DHT22;11070;51.336;12.340;2023-04-24T09:00:36;15.70;99.90
2062;DHT22;11070;51.336;12.340;2023-04-24T09:03:03;15.70;99.90
2062;DHT22;11070;51.336;12.340;2023-04-24T09:05:30;15.90;99.90
2062;DHT22;11070;51.336;12.340;2023-04-24T09:07:56;16.00;99.90
2062;DHT22;11070;51.336;12.340;2023-04-24T09:10:24;15.70;99.90
2062;DHT22;11070;51.336;12.340;2023-04-24T09:12:53;15.70;99.90
2062;DHT22;11070;51.336;12.340;2023-04-24T09:15:19;15.60;99.90
2062;DHT22;11070;51.336;12.340;2023-04-24T09:17:48;15.30;99.90
2062;DHT22;11070;51.336;12.340;2023-04-24T09:20:14;15.10;99.90
2062;DHT22;11070;51.336;12.340;2023-04-24T09:22:42;15.00;99.90
2062;DHT22;11070;51.336;12.340;2023-04-24T09:25:08;14.90;99.90
2062;DHT22;11070;51.336;12.340;2023-04-24T09:27:35;14.90;1.00
2062;DHT22;11070;51.336;12.340;2023-04-24T09:30:01;14.70;99.90
2062;DHT22;11070;51.336;12.340;2023-04-24T09:32:27;14.50;99.90
2062;DHT22;11070;51.336;12.340;2023-04-24T09:35:08;14.40;1.00
2062;DHT22;11070;51.336;12.340;2023-04-24T09:37:39;14.40;99.90
2062;DHT22;11070;51.336;12.340;2023-04-24T09:40:19;14.40;99.90
2062;DHT22;11070;51.336;12.340;2023-04-24T09:42:55;14.40;99.90
2062;DHT22;11070;51.336;12.340;2023-04-24T09:45:22;14.40;99.90
2062;DHT22;11070;51.336;12.340;2023-04-24T09:47:52;14.20;99.90
2062;DHT22;11070;51.336;12.340;2023-04-24T09:50:20;14.20;99.90
2062;DHT22;11070;51.336;12.340;2023-04-24T09:52:56;14.30;99.90
2062;DHT22;11070;51.336;12.340;2023-04-24T09:55:24;14.70;99.90
2062;DHT22;11070;51.336;12.340;2023-04-24T09:57:58;15.30;99.90
2062;DHT22;11070;51.336;12.340;2023-04-24T10:00:29;15.40;99.90
2062;DHT22;11070;51.336;12.340;2023-04-24T10:05:32;15.70;99.90
2062;DHT22;11070;51.336;12.340;2023-04-24T10:08:06;16.10;99.90
2062;DHT22;11070;51.336;12.340;2023-04-24T10:10:34;16.10;99.90
2062;DHT22;11070;51.336;12.340;2023-04-24T10:13:01;16.20;99.90
2062;DHT22;11070;51.336;12.340;2023-04-24T10:15:27;16.40;99.90
2062;DHT22;11070;51.336;12.340;2023-04-24T10:17:53;16.30;99.90
2062;DHT22;11070;51.336;12.340;2023-04-24T10:20:27;16.00;99.90
2062;DHT22;11070;51.336;12.340;2023-04-24T10:22:55;15.60;99.90
2062;DHT22;11070;51.336;12.340;2023-04-24T10:25:23;15.70;99.90
2062;DHT22;11070;51.336;12.340;2023-04-24T10:27:50;16.00;99.90
2062;DHT22;11070;51.336;12.340;2023-04-24T10:30:17;16.20;99.90
2062;DHT22;11070;51.336;12.340;2023-04-24T10:32:43;16.40;99.90
2062;DHT22;11070;51.336;12.340;2023-04-24T10:35:13;16.90;99.90
2062;DHT22;11070;51.336;12.340;2023-04-24T10:37:44;16.90;99.90
2062;DHT22;11070;51.336;12.340;2023-04-24T10:40:11;16.90;99.90
2062;DHT22;11070;51.336;12.340;2023-04-24T10:42:41;17.20;99.90
2062;DHT22;11070;51.336;12.340;2023-04-24T10:45:17;17.50;99.90
2062;DHT22;11070;51.336;12.340;2023-04-24T10:48:01;17.90;99.90
2062;DHT22;11070;51.336;12.340;2023-04-24T10:51:14;18.80;99.90
2062;DHT22;11070;51.336;12.340;2023-04-24T10:55:59;19.90;99.90
2062;DHT22;11070;51.336;12.340;2023-04-24T10:58:44;20.40;99.90
2062;DHT22;11070;51.336;12.340;2023-04-24T11:01:31;20.10;99.90
2062;DHT22;11070;51.336;12.340;2023-04-24T11:04:02;19.60;99.90
2062;DHT22;11070;51.336;12.340;2023-04-24T11:06:36;18.70;99.90
2062;DHT22;11070;51.336;12.340;2023-04-24T11:09:15;17.60;99.90
2062;DHT22;11070;51.336;12.340;2023-04-24T11:11:45;17.40;99.90
2062;DHT22;11070;51.336;12.340;2023-04-24T11:14:14;17.90;99.90
2062;DHT22;11070;51.336;12.340;2023-04-24T11:17:07;19.00;99.90
2062;DHT22;11070;51.336;12.340;2023-04-24T11:19:33;17.50;99.90
2062;DHT22;11070;51.336;12.340;2023-04-24T11:22:01;17.20;99.90
2062;DHT22;11070;51.336;12.340;2023-04-24T11:24:29;17.20;99.90
2062;DHT22;11070;51.336;12.340;2023-04-24T11:26:58;18.20;99.90
2062;DHT22;11070;51.336;12.340;2023-04-24T11:29:47;18.60;99.90
2062;DHT22;11070;51.336;12.340;2023-04-24T11:32:24;18.70;99.90
2062;DHT22;11070;51.336;12.340;2023-04-24T11:34:53;18.20;99.90
2062;DHT22;11070;51.336;12.340;2023-04-24T11:37:19;18.40;99.90
2062;DHT22;11070;51.336;12.340;2023-04-24T11:39:44;18.60;99.90
2062;DHT22;11070;51.336;12.340;2023-04-24T11:42:10;17.60;99.90
2062;DHT22;11070;51.336;12.340;2023-04-24T11:44:39;17.40;99.90
2062;DHT22;11070;51.336;12.340;2023-04-24T11:47:06;17.10;99.90
2062;DHT22;11070;51.336;12.340;2023-04-24T11:49:33;16.40;99.90
2062;DHT22;11070;51.336;12.340;2023-04-24T11:52:01;16.00;99.90
2062;DHT22;11070;51.336;12.340;2023-04-24T11:54:27;16.20;99.90
2062;DHT22;11070;51.336;12.340;2023-04-24T11:56:53;16.10;99.90
2062;DHT22;11070;51.336;12.340;2023-04-24T11:59:19;16.90;99.90
2062;DHT22;11070;51.336;12.340;2023-04-24T12:01:48;17.00;99.90
2062;DHT22;11070;51.336;12.340;2023-04-24T12:04:15;16.90;99.90
2062;DHT22;11070;51.336;12.340;2023-04-24T12:07:02;17.30;99.90
2062;DHT22;11070;51.336;12.340;2023-04-24T12:09:28;17.80;99.90
2062;DHT22;11070;51.336;12.340;2023-04-24T12:11:55;17.60;99.90
2062;DHT22;11070;51.336;12.340;2023-04-24T12:14:24;17.50;99.90
2062;DHT22;11070;51.336;12.340;2023-04-24T12:16:50;17.80;99.90
2062;DHT22;11070;51.336;12.340;2023-04-24T12:19:23;18.30;99.90
2062;DHT22;11070;51.336;12.340;2023-04-24T12:22:05;19.00;99.90
2062;DHT22;11070;51.336;12.340;2023-04-24T12:24:31;19.90;99.90
2062;DHT22;11070;51.336;12.340;2023-04-24T12:26:58;19.40;99.90
2062;DHT22;11070;51.336;12.340;2023-04-24T12:29:24;18.50;99.90
2062;DHT22;11070;51.336;12.340;2023-04-24T12:31:54;17.90;99.90
2062;DHT22;11070;51.336;12.340;2023-04-24T12:34:24;16.60;99.90
2062;DHT22;11070;51.336;12.340;2023-04-24T12:36:51;16.10;99.90
2062;DHT22;11070;51.336;12.340;2023-04-24T12:39:18;15.90;99.90
2062;DHT22;11070;51.336;12.340;2023-04-24T12:41:54;16.10;99.90
2062;DHT22;11070;51.336;12.340;2023-04-24T12:44:31;16.30;99.90
2062;DHT22;11070;51.336;12.340;2023-04-24T12:47:00;16.90;99.90
2062;DHT22;11070;51.336;12.340;2023-04-24T12:49:26;16.90;99.90
2062;DHT22;11070;51.336;12.340;2023-04-24T12:51:52;17.00;99.90
2062;DHT22;11070;51.336;12.340;2023-04-24T12:54:18;16.90;99.90
2062;DHT22;11070;51.336;12.340;2023-04-24T12:56:44;16.80;99.90
2062;DHT22;11070;51.336;12.340;2023-04-24T12:59:09;17.00;99.90
2062;DHT22;11070;51.336;12.340;2023-04-24T13:01:35;17.50;99.90
2062;DHT22;11070;51.336;12.340;2023-04-24T13:04:01;17.20;99.90
2062;DHT22;11070;51.336;12.340;2023-04-24T13:06:26;16.70;99.90
2062;DHT22;11070;51.336;12.340;2023-04-24T13:08:52;16.40;99.90
2062;DHT22;11070;51.336;12.340;2023-04-24T13:11:20;16.30;99.90
2062;DHT22;11070;51.336;12.340;2023-04-24T13:13:47;17.10;99.90
2062;DHT22;11070;51.336;12.340;2023-04-24T13:16:13;17.40;99.90
2062;DHT22;11070;51.336;12.340;2023-04-24T13:18:38;17.40;99.90
2062;DHT22;11070;51.336;12.340;2023-04-24T13:21:04;17.90;99.90
2062;DHT22;11070;51.336;12.340;2023-04-24T13:23:30;18.30;99.90
2062;DHT22;11070;51.336;12.340;2023-04-24T13:25:56;18.60;99.90
2062;DHT22;11070;51.336;12.340;2023-04-24T13:28:24;18.40;99.90
2062;DHT22;11070;51.336;12.340;2023-04-24T13:30:51;18.20;99.90
2062;DHT22;11070;51.336;12.340;2023-04-24T13:33:17;18.20;99.90
2062;DHT22;11070;51.336;12.340;2023-04-24T13:35:42;18.30;99.90
2062;DHT22;11070;51.336;12.340;2023-04-24T13:38:08;17.80;99.90
2062;DHT22;11070;51.336;12.340;2023-04-24T13:40:34;17.30;99.90
2062;DHT22;11070;51.336;12.340;2023-04-24T13:43:00;16.60;99.90
2062;DHT22;11070;51.336;12.340;2023-04-24T13:45:26;16.50;99.90
2062;DHT22;11070;51.336;12.340;2023-04-24T13:47:53;16.50;99.90
2062;DHT22;11070;51.336;12.340;2023-04-24T13:50:22;16.40;99.90
2062;DHT22;11070;51.336;12.340;2023-04-24T13:52:48;16.30;99.90
2062;DHT22;11070;51.336;12.340;2023-04-24T13:55:14;16.10;99.90
2062;DHT22;11070;51.336;12.340;2023-04-24T13:57:39;15.90;99.90
2062;DHT22;11070;51.336;12.340;2023-04-24T14:00:06;15.70;99.90
2062;DHT22;11070;51.336;12.340;2023-04-24T14:02:34;15.70;99.90
2062;DHT22;11070;51.336;12.340;2023-04-24T14:05:00;16.10;99.90
2062;DHT22;11070;51.336;12.340;2023-04-24T14:07:26;16.50;99.90
2062;DHT22;11070;51.336;12.340;2023-04-24T14:09:51;16.80;99.90
2062;DHT22;11070;51.336;12.340;2023-04-24T14:12:17;17.20;99.90
2062;DHT22;11070;51.336;12.340;2023-04-24T14:14:46;16.90;99.90
2062;DHT22;11070;51.336;12.340;2023-04-24T14:17:11;16.70;99.90
2062;DHT22;11070;51.336;12.340;2023-04-24T14:19:37;16.50;99.90
2062;DHT22;11070;51.336;12.340;2023-04-24T14:22:03;16.50;99.90
2062;DHT22;11070;51.336;12.340;2023-04-24T14:24:28;16.80;99.90
2062;DHT22;11070;51.336;12.340;2023-04-24T14:26:54;17.10;99.90
2062;DHT22;11070;51.336;12.340;2023-04-24T14:29:21;16.80;99.90
2062;DHT22;11070;51.336;12.340;2023-04-24T14:31:47;16.60;99.90
2062;DHT22;11070;51.336;12.340;2023-04-24T14:34:14;16.50;99.90
2062;DHT22;11070;51.336;12.340;2023-04-24T14:36:39;16.00;99.90
2062;DHT22;11070;51.336;12.340;2023-04-24T14:39:06;15.80;99.90
2062;DHT22;11070;51.336;12.340;2023-04-24T14:41:32;15.90;99.90
2062;DHT22;11070;51.336;12.340;2023-04-24T14:44:01;16.30;99.90
2062;DHT22;11070;51.336;12.340;2023-04-24T14:46:28;16.10;99.90
2062;DHT22;11070;51.336;12.340;2023-04-24T14:48:58;15.60;99.90
2062;DHT22;11070;51.336;12.340;2023-04-24T14:51:24;15.20;99.90
2062;DHT22;11070;51.336;12.340;2023-04-24T14:53:51;15.00;99.90
2062;DHT22;11070;51.336;12.340;2023-04-24T14:56:17;14.80;99.90
2062;DHT22;11070;51.336;12.340;2023-04-24T14:58:43;14.70;99.90
2062;DHT22;11070;51.336;12.340;2023-04-24T15:01:08;14.40;99.90
2062;DHT22;11070;51.336;12.340;2023-04-24T15:03:34;14.10;99.90
2062;DHT22;11070;51.336;12.340;2023-04-24T15:06:00;14.20;99.90
2062;DHT22;11070;51.336;12.340;2023-04-24T15:08:26;14.00;99.90
2062;DHT22;11070;51.336;12.340;2023-04-24T15:10:52;14.30;99.90
2062;DHT22;11070;51.336;12.340;2023-04-24T15:13:18;14.70;99.90
2062;DHT22;11070;51.336;12.340;2023-04-24T15:15:46;15.00;99.90
2062;DHT22;11070;51.336;12.340;2023-04-24T15:18:12;15.20;99.90
2062;DHT22;11070;51.336;12.340;2023-04-24T15:20:38;14.90;99.90
2062;DHT22;11070;51.336;12.340;2023-04-24T15:23:10;14.60;99.90
2062;DHT22;11070;51.336;12.340;2023-04-24T15:25:37;14.50;99.90
2062;DHT22;11070;51.336;12.340;2023-04-24T15:28:04;14.30;99.90
2062;DHT22;11070;51.336;12.340;2023-04-24T15:30:30;14.30;99.90
2062;DHT22;11070;51.336;12.340;2023-04-24T15:32:56;14.20;99.90
2062;DHT22;11070;51.336;12.340;2023-04-24T15:35:22;14.10;99.90
2062;DHT22;11070;51.336;12.340;2023-04-24T15:37:47;14.10;99.90
2062;DHT22;11070;51.336;12.340;2023-04-24T15:40:16;13.90;99.90
2062;DHT22;11070;51.336;12.340;2023-04-24T15:42:42;14.00;99.90